Time;durP1;ratioP1;P1;durP2;ratioP2;P2;SDS_P1;SDS_P2;PMS_P1;PMS_P2;Temp;Humidity;BMP_temperature;BMP_pressure;BME280_temperature;BME280_humidity;BME280_pressure;Samples;Min_cycle;Max_cycle;Signal;HPM_P1;HPM_P2
2022/12/07 00:01:19;;;;;;;9.48;5.03;;;3.80;99.90;;;;;;5073539;28;20125;-62
2022/12/07 00:03:47;;;;;;;15.68;2.40;;;3.80;99.90;;;;;;5074480;28;20044;-62
2022/12/07 00:06:16;;;;;;;4.93;1.75;;;3.80;99.90;;;;;;5073951;28;20488;-62
2022/12/07 00:08:45;;;;;;;9.52;1.83;;;3.90;99.90;;;;;;5074357;28;20514;-62
2022/12/07 00:11:14;;;;;;;5.95;1.92;;;3.90;99.90;;;;;;5074505;28;20059;-62
2022/12/07 00:13:41;;;;;;;5.35;2.00;;;3.90;99.90;;;;;;5073796;28;20496;-62
2022/12/07 00:16:10;;;;;;;9.15;1.70;;;3.90;99.90;;;;;;5070952;28;20091;-62
2022/12/07 00:18:37;;;;;;;2.97;1.42;;;3.90;99.90;;;;;;5074298;28;20056;-62
2022/12/07 00:21:06;;;;;;;11.52;2.10;;;3.80;99.90;;;;;;5073759;28;20090;-63
2022/12/07 00:23:33;;;;;;;4.80;1.30;;;3.80;99.90;;;;;;5074286;28;20055;-63
2022/12/07 00:26:06;;;;;;;6.75;1.60;;;3.80;99.90;;;;;;5074295;28;20519;-62
2022/12/07 00:28:34;;;;;;;6.50;1.27;;;3.70;99.90;;;;;;5073560;28;20044;-62
2022/12/07 00:31:03;;;;;;;7.72;2.33;;;3.70;99.90;;;;;;5072167;28;20386;-62
2022/12/07 00:33:30;;;;;;;7.43;1.90;;;3.70;99.90;;;;;;5073093;28;20044;-63
2022/12/07 00:35:58;;;;;;;7.05;2.00;;;3.70;99.90;;;;;;5073378;28;20400;-62
2022/12/07 00:38:25;;;;;;;9.32;1.58;;;3.70;99.90;;;;;;5104516;28;20053;-62
2022/12/07 00:40:59;;;;;;;10.25;1.83;;;3.60;99.90;;;;;;5073538;28;20041;-61
2022/12/07 00:43:28;;;;;;;4.10;1.65;;;3.60;99.90;;;;;;5073862;28;20744;-62
2022/12/07 00:45:56;;;;;;;6.72;1.50;;;3.70;99.90;;;;;;5072593;28;20152;-61
2022/12/07 00:48:23;;;;;;;5.38;1.95;;;3.70;99.90;;;;;;5072524;28;20044;-61
2022/12/07 00:50:51;;;;;;;10.07;3.83;;;3.70;99.90;;;;;;5073635;28;20044;-61
2022/12/07 00:53:18;;;;;;;7.88;2.90;;;3.80;99.90;;;;;;5072712;28;20040;-61
2022/12/07 00:55:45;;;;;;;8.65;3.90;;;3.80;99.90;;;;;;5072162;28;20060;-61
2022/12/07 00:58:12;;;;;;;9.45;3.40;;;3.90;99.90;;;;;;5072504;28;20107;-60
2022/12/07 01:00:42;;;;;;;8.77;4.10;;;3.90;99.90;;;;;;5073528;28;20393;-62
2022/12/07 01:03:11;;;;;;;9.20;4.78;;;4.00;99.90;;;;;;5072686;28;20048;-62
2022/12/07 01:05:38;;;;;;;7.20;4.20;;;4.00;99.90;;;;;;5073771;28;20454;-62
2022/12/07 01:08:06;;;;;;;9.18;4.72;;;4.10;99.90;;;;;;5071877;28;20049;-61
2022/12/07 01:10:33;;;;;;;14.75;6.18;;;4.10;99.90;;;;;;5071748;28;20055;-62
2022/12/07 01:13:00;;;;;;;8.63;5.50;;;4.10;99.90;;;;;;5071181;28;20056;-61
2022/12/07 01:15:27;;;;;;;8.57;4.25;;;4.10;99.90;;;;;;5072212;28;20060;-61
2022/12/07 01:17:56;;;;;;;6.43;1.92;;;4.10;99.90;;;;;;5072288;28;20446;-61
2022/12/07 01:20:23;;;;;;;3.80;1.48;;;4.10;99.90;;;;;;5073153;28;20094;-61
2022/12/07 01:22:50;;;;;;;3.95;1.10;;;4.10;99.90;;;;;;5073222;28;20052;-61
2022/12/07 01:25:17;;;;;;;9.80;4.85;;;4.10;99.90;;;;;;5069185;28;20063;-61
2022/12/07 01:27:44;;;;;;;8.00;2.70;;;4.10;99.90;;;;;;5071638;28;20056;-61
2022/12/07 01:30:12;;;;;;;5.45;1.40;;;4.20;99.90;;;;;;5072667;28;20507;-61
2022/12/07 01:32:40;;;;;;;6.60;1.35;;;4.20;99.90;;;;;;5071958;28;20094;-61
2022/12/07 01:35:08;;;;;;;6.55;1.48;;;4.20;99.90;;;;;;5071871;28;20048;-61
2022/12/07 01:37:37;;;;;;;11.80;1.50;;;4.30;99.90;;;;;;5069156;28;20048;-61
2022/12/07 01:40:05;;;;;;;4.68;1.60;;;4.30;99.90;;;;;;5072542;28;20641;-61
2022/12/07 01:42:32;;;;;;;6.53;1.58;;;4.30;99.90;;;;;;5072594;28;20040;-61
2022/12/07 01:45:37;;;;;;;4.65;1.60;;;4.40;99.90;;;;;;5070763;28;20052;-61
2022/12/07 01:48:05;;;;;;;7.50;3.30;;;4.20;99.90;;;;;;5072681;28;20055;-61
2022/12/07 01:50:34;;;;;;;12.52;4.53;;;4.20;99.90;;;;;;5072208;28;20408;-61
2022/12/07 01:53:04;;;;;;;11.63;5.25;;;4.10;99.90;;;;;;5070728;28;20064;-62
2022/12/07 01:55:31;;;;;;;17.50;6.00;;;4.00;99.90;;;;;;5072941;28;20040;-61
2022/12/07 01:57:58;;;;;;;12.38;4.53;;;4.00;99.90;;;;;;5072798;28;20036;-61
2022/12/07 02:00:25;;;;;;;6.60;2.03;;;4.00;99.90;;;;;;5070869;28;20052;-61
2022/12/07 02:02:56;;;;;;;8.10;1.90;;;4.00;99.90;;;;;;5071277;28;20083;-61
2022/12/07 02:05:25;;;;;;;5.03;1.83;;;4.00;99.90;;;;;;5071685;28;20044;-61
2022/12/07 02:07:56;;;;;;;7.90;2.42;;;4.00;99.90;;;;;;5071263;28;20148;-62
2022/12/07 02:10:25;;;;;;;5.70;1.50;;;4.10;99.90;;;;;;5072224;28;20404;-62
2022/12/07 02:12:56;;;;;;;11.82;1.90;;;4.10;99.90;;;;;;5070058;28;20404;-62
2022/12/07 02:15:29;;;;;;;5.35;2.20;;;4.00;99.90;;;;;;5072216;28;20067;-62
2022/12/07 02:18:06;;;;;;;6.15;1.40;;;4.00;99.90;;;;;;5072126;28;20435;-62
2022/12/07 02:20:35;;;;;;;10.18;1.88;;;4.00;99.90;;;;;;5071657;28;20048;-62
2022/12/07 02:23:26;;;;;;;7.03;1.80;;;3.90;99.90;;;;;;5070973;28;20404;-62
2022/12/07 02:26:13;;;;;;;5.85;1.77;;;3.90;99.90;;;;;;5070990;28;20048;-61
2022/12/07 02:28:57;;;;;;;10.52;2.33;;;3.90;99.90;;;;;;5070464;28;20041;-62
2022/12/07 02:31:26;;;;;;;11.38;2.20;;;3.90;99.90;;;;;;5070512;28;20052;-62
2022/12/07 02:34:00;;;;;;;5.15;1.83;;;3.90;99.90;;;;;;5070187;28;20111;-61
2022/12/07 02:36:31;;;;;;;5.28;1.75;;;4.00;99.90;;;;;;5071930;28;20040;-61
2022/12/07 02:39:03;;;;;;;8.35;1.75;;;4.10;99.90;;;;;;5072079;28;20057;-62
2022/12/07 02:41:34;;;;;;;9.82;2.70;;;4.10;99.90;;;;;;5070297;28;20060;-62
2022/12/07 02:44:07;;;;;;;7.90;4.30;;;4.20;99.90;;;;;;5070537;28;20058;-62
2022/12/07 02:46:40;;;;;;;9.65;5.90;;;4.20;99.90;;;;;;5070935;28;20131;-63
2022/12/07 02:52:02;;;;;;;6.30;2.10;;;4.30;99.90;;;;;;5070851;28;20084;-62
2022/12/07 02:54:29;;;;;;;3.10;1.60;;;4.30;99.90;;;;;;5071609;28;20088;-62
2022/12/07 02:57:03;;;;;;;6.10;3.70;;;4.30;99.90;;;;;;5071451;28;20041;-62
2022/12/07 02:59:47;;;;;;;7.63;4.95;;;4.20;99.90;;;;;;5071587;28;20094;-62
2022/12/07 03:02:23;;;;;;;6.80;2.65;;;4.20;99.90;;;;;;5069769;28;20132;-62
2022/12/07 03:05:01;;;;;;;6.60;3.20;;;4.30;99.90;;;;;;5070750;28;20060;-61
2022/12/07 03:07:35;;;;;;;5.85;2.78;;;4.30;99.90;;;;;;5070481;28;20059;-62
2022/12/07 03:10:10;;;;;;;9.52;4.13;;;4.40;99.90;;;;;;5067730;28;20051;-61
2022/12/07 03:12:43;;;;;;;6.60;2.60;;;4.40;99.90;;;;;;5073083;28;20680;-62
2022/12/07 03:15:17;;;;;;;4.93;1.52;;;4.30;99.90;;;;;;5075631;28;20045;-62
2022/12/07 03:17:47;;;;;;;4.57;2.10;;;4.30;99.90;;;;;;5075155;28;20044;-62
2022/12/07 03:20:18;;;;;;;6.90;3.25;;;4.30;99.90;;;;;;5074017;28;20060;-61
2022/12/07 03:22:47;;;;;;;8.27;3.20;;;4.30;99.90;;;;;;5074947;28;20052;-61
2022/12/07 03:25:17;;;;;;;6.82;1.90;;;4.40;99.90;;;;;;5075654;28;20048;-62
2022/12/07 03:27:49;;;;;;;5.07;1.93;;;4.40;99.90;;;;;;5073355;28;20037;-61
2022/12/07 03:30:20;;;;;;;7.57;1.20;;;4.40;99.90;;;;;;5073534;28;20053;-62
2022/12/07 03:32:50;;;;;;;4.63;1.35;;;4.40;99.90;;;;;;5074283;28;20064;-62
2022/12/07 03:35:19;;;;;;;;;;;4.40;99.90;;;;;;5076231;28;20044;-62
2022/12/07 03:37:52;;;;;;;7.53;2.25;;;4.20;99.90;;;;;;5071918;28;20339;-61
2022/12/07 03:40:26;;;;;;;3.78;1.30;;;4.20;99.90;;;;;;5075006;28;20519;-62
2022/12/07 03:42:55;;;;;;;7.03;2.35;;;4.20;99.90;;;;;;5074361;28;20098;-61
2022/12/07 03:45:28;;;;;;;8.65;4.82;;;4.30;99.90;;;;;;5074150;28;20057;-62
2022/12/07 03:48:04;;;;;;;10.15;4.65;;;4.30;99.90;;;;;;5075311;28;20438;-62
2022/12/07 03:50:37;;;;;;;9.88;3.78;;;4.20;99.90;;;;;;5073640;28;20045;-62
2022/12/07 03:53:10;;;;;;;11.80;3.08;;;4.30;99.90;;;;;;5074240;28;20060;-62
2022/12/07 03:55:42;;;;;;;7.93;2.00;;;4.30;99.90;;;;;;5074839;28;20048;-62
2022/12/07 03:58:13;;;;;;;7.22;2.13;;;4.30;99.90;;;;;;5073382;28;20484;-62
2022/12/07 04:00:41;;;;;;;;;;;4.20;99.90;;;;;;5073315;28;20048;-62
2022/12/07 04:03:08;;;;;;;3.97;1.50;;;4.10;99.90;;;;;;5073414;28;19924;-62
2022/12/07 04:05:35;;;;;;;3.92;1.90;;;4.00;99.90;;;;;;5072989;28;20496;-62
2022/12/07 04:08:02;;;;;;;7.35;2.20;;;4.00;99.90;;;;;;5071454;28;20049;-62
2022/12/07 04:10:29;;;;;;;14.32;4.30;;;3.90;99.90;;;;;;5074243;28;20052;-62
2022/12/07 04:12:56;;;;;;;10.40;4.82;;;4.00;99.90;;;;;;5074349;28;20048;-61
2022/12/07 04:15:23;;;;;;;15.55;3.80;;;3.90;99.90;;;;;;5073319;28;20048;-62
2022/12/07 04:17:51;;;;;;;5.55;2.10;;;3.90;99.90;;;;;;5074745;28;20041;-62
2022/12/07 04:20:18;;;;;;;13.55;1.92;;;4.00;99.90;;;;;;5072364;28;20561;-63
2022/12/07 04:22:45;;;;;;;11.18;1.85;;;3.90;99.90;;;;;;5073637;28;20051;-62
2022/12/07 04:25:12;;;;;;;6.60;1.63;;;3.90;99.90;;;;;;5071710;28;20408;-62
2022/12/07 04:27:39;;;;;;;11.20;2.08;;;3.90;99.90;;;;;;5072650;28;20068;-62
2022/12/07 04:30:07;;;;;;;6.57;1.30;;;3.80;99.90;;;;;;5072629;28;20049;-62
2022/12/07 04:32:34;;;;;;;10.63;2.70;;;3.70;99.90;;;;;;5074433;28;20405;-62
2022/12/07 04:35:03;;;;;;;10.95;1.55;;;3.60;99.90;;;;;;5072750;28;20052;-62
2022/12/07 04:37:30;;;;;;;7.03;1.83;;;3.60;99.90;;;;;;5063701;28;20045;-62
2022/12/07 04:39:57;;;;;;;6.20;2.00;;;3.60;99.90;;;;;;5062446;28;20071;-61
2022/12/07 04:42:24;;;;;;;8.65;2.45;;;3.50;99.90;;;;;;5064172;28;20049;-62
2022/12/07 04:44:51;;;;;;;11.85;2.80;;;3.60;99.90;;;;;;5065274;28;20507;-61
2022/12/07 04:47:18;;;;;;;6.90;1.85;;;3.60;99.90;;;;;;5066001;28;20041;-61
2022/12/07 04:49:45;;;;;;;11.00;1.95;;;3.60;99.90;;;;;;5067972;28;20049;-62
2022/12/07 04:52:13;;;;;;;5.45;1.63;;;3.70;99.90;;;;;;5069848;28;20051;-62
2022/12/07 04:54:40;;;;;;;8.35;1.83;;;3.70;99.90;;;;;;5065840;28;20386;-62
2022/12/07 04:57:07;;;;;;;8.02;1.98;;;3.60;99.90;;;;;;5069950;28;20063;-61
2022/12/07 04:59:34;;;;;;;6.93;1.40;;;3.60;99.90;;;;;;5069246;28;20051;-62
2022/12/07 05:02:01;;;;;;;4.32;1.70;;;3.50;99.90;;;;;;5068006;28;20496;-61
2022/12/07 05:04:28;;;;;;;4.25;1.30;;;3.40;99.90;;;;;;5068209;28;20052;-63
2022/12/07 05:06:55;;;;;;;4.32;1.45;;;3.30;99.90;;;;;;5069553;28;20052;-62
2022/12/07 05:09:23;;;;;;;5.53;1.40;;;3.20;99.90;;;;;;5066697;28;20134;-61
2022/12/07 05:11:50;;;;;;;9.27;1.70;;;3.10;99.90;;;;;;5069290;28;20071;-62
2022/12/07 05:14:19;;;;;;;6.20;2.20;;;3.00;99.90;;;;;;5067136;28;20051;-63
2022/12/07 05:16:48;;;;;;;6.85;2.85;;;2.90;99.90;;;;;;5065545;28;20079;-63
2022/12/07 05:19:15;;;;;;;5.22;2.40;;;2.80;99.90;;;;;;5064669;28;20100;-63
2022/12/07 05:21:42;;;;;;;9.35;3.33;;;2.80;99.90;;;;;;5066703;28;20045;-63
2022/12/07 05:24:12;;;;;;;6.57;2.00;;;2.70;99.90;;;;;;5067156;28;20090;-62
2022/12/07 05:26:40;;;;;;;5.35;2.10;;;2.60;99.90;;;;;;5067581;28;20056;-62
2022/12/07 05:29:08;;;;;;;6.00;2.03;;;2.60;99.90;;;;;;5067425;28;20512;-63
2022/12/07 05:31:35;;;;;;;7.07;1.73;;;2.50;99.90;;;;;;5065758;28;20059;-62
2022/12/07 05:34:02;;;;;;;6.28;1.52;;;2.50;99.90;;;;;;5065280;28;20063;-62
2022/12/07 05:36:30;;;;;;;7.50;1.60;;;2.50;99.90;;;;;;5067235;28;20056;-62
2022/12/07 05:38:57;;;;;;;5.25;1.67;;;2.50;99.90;;;;;;5067405;28;20131;-61
2022/12/07 05:44:10;;;;;;;6.07;1.92;;;2.40;99.90;;;;;;5071775;28;20521;-63
2022/12/07 05:46:37;;;;;;;9.02;1.83;;;2.50;99.90;;;;;;5069780;28;20063;-63
2022/12/07 05:49:04;;;;;;;5.78;2.00;;;2.50;99.90;;;;;;5071145;28;20072;-63
2022/12/07 05:51:31;;;;;;;9.30;1.70;;;2.50;99.90;;;;;;5070158;28;20048;-63
2022/12/07 05:53:58;;;;;;;8.98;1.98;;;2.50;99.90;;;;;;5071971;28;20045;-63
2022/12/07 05:56:26;;;;;;;10.15;2.55;;;2.40;99.90;;;;;;5071922;28;20044;-63
2022/12/07 06:01:39;;;;;;;7.20;2.03;;;2.40;99.90;;;;;;5071314;28;20074;-62
2022/12/07 06:04:06;;;;;;;8.48;1.70;;;2.30;99.90;;;;;;5069596;28;20456;-62
2022/12/07 06:06:32;;;;;;;8.43;2.97;;;2.30;99.90;;;;;;5071208;28;20048;-62
2022/12/07 06:08:59;;;;;;;11.10;2.35;;;2.30;99.90;;;;;;5071817;28;20044;-62
2022/12/07 06:14:11;;;;;;;14.07;3.40;;;2.40;99.90;;;;;;5071474;28;20051;-61
2022/12/07 06:16:39;;;;;;;13.18;2.78;;;2.60;99.90;;;;;;5070620;28;20058;-62
2022/12/07 06:19:06;;;;;;;10.98;1.85;;;2.80;99.90;;;;;;5070109;28;20572;-62
2022/12/07 06:21:33;;;;;;;7.30;1.83;;;3.00;99.90;;;;;;5070592;28;20051;-62
2022/12/07 06:24:00;;;;;;;5.50;2.08;;;3.00;99.90;;;;;;5069642;28;20056;-62
2022/12/07 06:26:27;;;;;;;6.25;2.20;;;3.00;99.90;;;;;;5068890;28;20550;-62
2022/12/07 06:28:54;;;;;;;6.13;3.75;;;3.00;99.90;;;;;;5070712;28;20044;-62
2022/12/07 06:31:21;;;;;;;11.90;5.40;;;3.00;99.90;;;;;;5069083;28;20056;-62
2022/12/07 06:33:49;;;;;;;10.20;5.22;;;3.00;99.90;;;;;;5070306;28;20538;-62
2022/12/07 06:36:16;;;;;;;10.15;4.63;;;2.90;99.90;;;;;;5069485;28;20084;-62
2022/12/07 06:38:43;;;;;;;6.85;2.60;;;2.90;99.90;;;;;;5068712;28;20060;-62
2022/12/07 06:41:10;;;;;;;4.93;1.50;;;2.80;99.90;;;;;;5068940;28;20113;-62
2022/12/07 06:43:38;;;;;;;6.53;1.90;;;2.70;99.90;;;;;;5093595;28;20059;-62
2022/12/07 06:46:05;;;;;;;8.00;1.70;;;2.70;99.90;;;;;;5070605;28;20062;-62
2022/12/07 06:48:32;;;;;;;5.75;1.58;;;2.70;99.90;;;;;;5068322;28;20045;-62
2022/12/07 06:51:00;;;;;;;6.03;1.38;;;2.60;99.90;;;;;;5070395;28;20044;-62
2022/12/07 06:53:27;;;;;;;5.60;1.40;;;2.50;99.90;;;;;;5067477;28;20066;-62
2022/12/07 06:55:54;;;;;;;5.63;1.42;;;2.50;99.90;;;;;;5067220;28;20109;-62
2022/12/07 06:58:21;;;;;;;6.93;1.48;;;2.40;99.90;;;;;;5065787;28;20048;-62
2022/12/07 07:00:49;;;;;;;5.40;1.42;;;2.40;99.90;;;;;;5062172;28;20059;-63
2022/12/07 07:03:16;;;;;;;3.47;1.70;;;2.30;99.90;;;;;;5065834;28;20053;-62
2022/12/07 07:05:44;;;;;;;3.95;1.15;;;2.40;99.90;;;;;;5068164;28;20044;-63
2022/12/07 07:08:13;;;;;;;5.22;2.08;;;2.40;99.90;;;;;;5063164;28;20052;-62
2022/12/07 07:10:40;;;;;;;6.35;2.00;;;2.50;99.90;;;;;;5070085;28;20091;-62
2022/12/07 07:13:08;;;;;;;6.53;2.20;;;2.60;99.90;;;;;;5065641;28;20052;-62
2022/12/07 07:15:35;;;;;;;9.02;2.67;;;2.70;99.90;;;;;;5064225;28;20048;-63
2022/12/07 07:18:03;;;;;;;2.95;1.48;;;2.80;99.90;;;;;;5064346;28;20048;-62
2022/12/07 07:20:30;;;;;;;6.90;1.60;;;2.90;99.90;;;;;;5068474;28;20036;-63
2022/12/07 07:22:57;;;;;;;4.75;1.60;;;2.90;99.90;;;;;;5069301;28;20048;-63
2022/12/07 07:25:25;;;;;;;6.68;2.25;;;2.90;99.90;;;;;;5066988;28;20059;-62
2022/12/07 07:27:52;;;;;;;8.15;1.98;;;2.90;99.90;;;;;;5070904;28;20400;-63
2022/12/07 07:30:19;;;;;;;8.57;2.22;;;2.90;99.90;;;;;;5069949;28;20063;-62
2022/12/07 07:32:46;;;;;;;9.10;3.92;;;2.80;99.90;;;;;;5069737;28;20048;-62
2022/12/07 07:35:14;;;;;;;17.70;5.30;;;2.80;99.90;;;;;;5070293;28;20109;-62
2022/12/07 07:37:41;;;;;;;10.02;2.95;;;2.80;99.90;;;;;;5069728;28;20060;-62
2022/12/07 07:40:09;;;;;;;7.10;2.42;;;2.70;99.90;;;;;;5069146;28;20075;-63
2022/12/07 07:42:37;;;;;;;5.70;2.58;;;2.70;99.90;;;;;;5070869;28;20053;-62
2022/12/07 07:45:05;;;;;;;7.72;2.28;;;2.70;99.90;;;;;;5069373;28;20120;-62
2022/12/07 07:47:32;;;;;;;7.10;1.80;;;2.70;99.90;;;;;;5069765;28;20055;-63
2022/12/07 07:49:59;;;;;;;10.80;1.92;;;2.60;99.90;;;;;;5070785;28;20048;-61
2022/12/07 07:52:26;;;;;;;6.20;2.40;;;2.60;99.90;;;;;;5070304;28;20052;-62
2022/12/07 07:54:53;;;;;;;7.10;2.28;;;2.50;99.90;;;;;;5071280;28;20067;-62
2022/12/07 07:57:20;;;;;;;6.97;2.22;;;2.50;99.90;;;;;;5068559;28;20044;-61
2022/12/07 07:59:48;;;;;;;9.20;2.15;;;2.50;99.90;;;;;;5073508;28;20072;-63
2022/12/07 08:02:16;;;;;;;5.22;1.92;;;2.50;99.90;;;;;;5073646;28;20053;-62
2022/12/07 08:04:44;;;;;;;7.07;2.15;;;2.60;99.90;;;;;;5073797;28;20047;-62
2022/12/07 08:07:11;;;;;;;10.02;2.20;;;2.70;99.90;;;;;;5073273;28;20060;-62
2022/12/07 08:09:39;;;;;;;8.32;2.35;;;2.70;99.90;;;;;;5072374;28;20037;-62
2022/12/07 08:12:06;;;;;;;5.15;2.20;;;2.80;99.90;;;;;;5073237;28;20061;-62
2022/12/07 08:14:34;;;;;;;8.93;2.83;;;2.90;99.90;;;;;;5073402;28;20051;-61
2022/12/07 08:17:02;;;;;;;7.35;2.03;;;2.90;99.90;;;;;;5073297;28;20052;-63
2022/12/07 08:19:29;;;;;;;7.43;2.55;;;3.00;99.90;;;;;;5073720;28;20099;-62
2022/12/07 08:21:56;;;;;;;8.43;1.80;;;3.20;99.90;;;;;;5074151;28;20093;-62
2022/12/07 08:24:23;;;;;;;9.63;2.30;;;3.90;99.90;;;;;;5072768;28;20053;-63
2022/12/07 08:26:50;;;;;;;8.60;1.92;;;4.50;99.90;;;;;;5072688;28;20067;-63
2022/12/07 08:29:17;;;;;;;4.72;1.52;;;5.10;99.90;;;;;;5070885;28;20102;-62
2022/12/07 08:31:44;;;;;;;7.40;2.05;;;5.90;99.90;;;;;;5073806;28;20416;-63
2022/12/07 08:34:13;;;;;;;10.20;2.45;;;6.50;99.90;;;;;;5073441;28;20528;-62
2022/12/07 08:36:40;;;;;;;5.32;1.73;;;7.10;99.90;;;;;;5074039;28;20264;-63
2022/12/07 08:39:07;;;;;;;7.13;2.13;;;7.70;99.90;;;;;;5073856;28;20052;-63
2022/12/07 08:41:34;;;;;;;6.47;2.22;;;7.90;99.90;;;;;;5072148;28;20060;-63
2022/12/07 08:44:01;;;;;;;5.95;2.67;;;8.30;99.90;;;;;;5072415;28;20064;-64
2022/12/07 08:46:34;;;;;;;10.73;3.65;;;8.50;99.90;;;;;;5073539;28;20051;-63
2022/12/07 08:49:05;;;;;;;8.20;3.70;;;8.40;99.90;;;;;;5072418;28;20520;-63
2022/12/07 08:51:34;;;;;;;11.55;5.20;;;8.80;99.90;;;;;;5072649;28;20057;-63
2022/12/07 08:54:04;;;;;;;10.80;2.60;;;9.40;99.90;;;;;;5072747;28;20045;-62
2022/12/07 08:56:31;;;;;;;9.85;2.10;;;9.30;99.90;;;;;;5073680;28;20105;-62
2022/12/07 08:58:59;;;;;;;7.30;2.00;;;8.90;99.90;;;;;;5073641;28;20427;-62
2022/12/07 09:01:26;;;;;;;8.18;2.28;;;9.10;99.90;;;;;;5071586;28;20079;-62
2022/12/07 09:03:53;;;;;;;8.10;2.67;;;9.30;99.90;;;;;;5064181;28;20048;-62
2022/12/07 09:06:20;;;;;;;11.57;2.58;;;9.90;99.90;;;;;;5058939;28;20439;-62
2022/12/07 09:08:52;;;;;;;7.82;2.08;;;10.40;99.90;;;;;;5063127;28;20060;-62
2022/12/07 09:11:19;;;;;;;8.68;2.92;;;10.10;99.90;;;;;;5099785;28;20098;-63
2022/12/07 09:13:45;;;;;;;13.95;2.70;;;9.70;99.90;;;;;;5068537;28;20045;-63
2022/12/07 09:16:12;;;;;;;6.95;3.03;;;9.40;99.90;;;;;;5067537;28;20048;-62
2022/12/07 09:18:39;;;;;;;3.75;2.00;;;9.30;99.90;;;;;;5064382;28;20575;-63
2022/12/07 09:21:06;;;;;;;3.58;1.13;;;9.50;99.90;;;;;;5066050;28;20045;-63
2022/12/07 09:23:33;;;;;;;2.75;1.33;;;9.60;99.90;;;;;;5068550;28;20043;-63
2022/12/07 09:26:02;;;;;;;2.72;1.83;;;9.70;99.90;;;;;;5066780;28;20044;-62
2022/12/07 09:28:29;;;;;;;3.90;1.23;;;9.20;99.90;;;;;;5066199;28;20063;-63
2022/12/07 09:30:56;;;;;;;4.07;1.58;;;8.70;99.90;;;;;;5066541;28;20060;-61
2022/12/07 09:33:23;;;;;;;6.00;1.42;;;8.10;99.90;;;;;;5068432;28;20059;-62
2022/12/07 09:35:51;;;;;;;3.88;1.48;;;7.60;99.90;;;;;;5068471;28;20052;-61
2022/12/07 09:38:19;;;;;;;4.70;1.95;;;7.20;99.90;;;;;;5071360;28;20469;-62
2022/12/07 09:40:47;;;;;;;4.72;1.88;;;6.90;99.90;;;;;;5068425;28;20044;-62
2022/12/07 09:43:18;;;;;;;6.47;1.58;;;6.70;99.90;;;;;;5069423;28;20055;-63
2022/12/07 09:45:48;;;;;;;7.65;1.85;;;6.30;99.90;;;;;;5070593;28;20515;-63
2022/12/07 09:48:19;;;;;;;5.95;2.00;;;6.20;99.90;;;;;;5070793;28;20037;-62
2022/12/07 09:50:47;;;;;;;6.50;1.80;;;6.10;99.90;;;;;;5070746;28;20075;-63
2022/12/07 09:53:19;;;;;;;8.18;1.83;;;6.00;99.90;;;;;;5072680;28;20114;-63
2022/12/07 09:55:46;;;;;;;3.63;1.58;;;6.00;99.90;;;;;;5072508;28;20056;-64
2022/12/07 09:58:21;;;;;;;8.00;2.00;;;6.00;99.90;;;;;;5069764;28;20056;-63
2022/12/07 10:00:48;;;;;;;10.95;1.95;;;6.00;99.90;;;;;;5069128;28;20113;-63
2022/12/07 10:03:15;;;;;;;3.42;1.67;;;6.00;99.90;;;;;;5071037;28;20063;-63
2022/12/07 10:05:45;;;;;;;11.40;2.20;;;6.10;99.90;;;;;;5070828;28;20412;-63
2022/12/07 10:08:13;;;;;;;5.85;2.00;;;6.10;99.90;;;;;;5070654;28;20072;-62
2022/12/07 10:10:41;;;;;;;8.88;2.25;;;6.10;99.90;;;;;;5070027;28;20162;-63
2022/12/07 10:13:09;;;;;;;6.63;1.95;;;6.30;99.90;;;;;;5071345;28;20446;-62
2022/12/07 10:15:47;;;;;;;7.22;2.08;;;7.00;99.90;;;;;;5071159;28;20519;-62
2022/12/07 10:18:21;;;;;;;4.72;1.83;;;7.60;99.90;;;;;;5069010;28;20063;-63
2022/12/07 10:20:48;;;;;;;8.50;2.05;;;7.80;99.90;;;;;;5071764;28;20459;-62
2022/12/07 10:23:17;;;;;;;3.97;1.75;;;8.10;99.90;;;;;;5070210;28;20047;-63
2022/12/07 10:25:48;;;;;;;5.97;1.50;;;8.40;99.90;;;;;;5071143;28;20075;-62
2022/12/07 10:28:17;;;;;;;6.15;1.45;;;8.50;99.90;;;;;;5071140;28;20128;-62
2022/12/07 10:30:51;;;;;;;5.72;2.10;;;8.30;99.90;;;;;;5070081;28;20044;-62
2022/12/07 10:33:33;;;;;;;9.40;1.83;;;8.30;99.90;;;;;;5070515;28;20059;-62
2022/12/07 10:36:01;;;;;;;2.80;1.60;;;8.60;99.90;;;;;;5071618;28;20044;-62
2022/12/07 10:38:31;;;;;;;9.07;2.45;;;9.50;99.90;;;;;;5068654;28;20044;-63
2022/12/07 10:41:06;;;;;;;4.65;1.65;;;10.60;99.90;;;;;;5071265;28;20405;-62
2022/12/07 10:43:33;;;;;;;5.20;1.65;;;11.50;99.90;;;;;;5069022;28;20531;-62
2022/12/07 10:49:08;;;;;;;9.00;1.40;;;12.30;99.90;;;;;;5109569;27;20119;-62
2022/12/07 10:51:42;;;;;;;6.95;1.77;;;12.20;99.90;;;;;;5088994;28;20048;-63
2022/12/07 10:54:18;;;;;;;5.20;1.65;;;11.70;99.90;;;;;;5088155;28;20059;-62
2022/12/07 10:57:01;;;;;;;9.68;2.15;;;10.80;99.90;;;;;;5086992;28;20063;-62
2022/12/07 10:59:50;;;;;;;6.90;1.67;;;10.00;99.90;;;;;;5071084;28;20499;-62
2022/12/07 11:02:30;;;;;;;5.78;1.58;;;9.10;99.90;;;;;;5070068;28;20065;-62
2022/12/07 11:05:14;;;;;;;5.50;1.95;;;8.30;99.90;;;;;;5070714;28;20097;-63
2022/12/07 11:07:53;;;;;;;10.82;1.60;;;7.80;99.90;;;;;;5070206;28;20057;-63
2022/12/07 11:10:27;;;;;;;4.63;1.58;;;7.30;99.90;;;;;;5089060;28;20052;-63
2022/12/07 11:13:15;;;;;;;6.50;2.10;;;6.80;99.90;;;;;;5070457;28;20491;-63
2022/12/07 11:15:54;;;;;;;7.95;1.98;;;6.70;99.90;;;;;;5088227;28;20052;-63
2022/12/07 11:18:28;;;;;;;5.32;2.90;;;6.50;99.90;;;;;;5088293;28;20044;-63
2022/12/07 11:21:05;;;;;;;4.07;2.22;;;6.50;99.90;;;;;;5088788;28;20052;-63
2022/12/07 11:23:44;;;;;;;4.97;1.70;;;6.60;99.90;;;;;;5069909;28;20056;-63
2022/12/07 11:26:20;;;;;;;10.52;2.05;;;6.70;99.90;;;;;;5088691;28;20048;-63
2022/12/07 11:29:06;;;;;;;7.72;3.60;;;6.90;99.90;;;;;;5088163;28;20044;-64
2022/12/07 11:31:47;;;;;;;9.07;4.97;;;7.50;99.90;;;;;;5088327;28;20047;-63
2022/12/07 11:34:25;;;;;;;6.03;3.80;;;8.10;99.90;;;;;;5069789;28;20162;-63
2022/12/07 11:36:56;;;;;;;3.60;1.20;;;8.30;99.90;;;;;;5088071;28;20554;-63
2022/12/07 11:39:34;;;;;;;4.43;1.55;;;8.20;99.90;;;;;;5088416;28;20480;-63
2022/12/07 11:42:07;;;;;;;2.58;1.10;;;8.20;99.90;;;;;;5088217;28;20051;-63
2022/12/07 11:44:41;;;;;;;4.05;1.50;;;8.50;99.90;;;;;;5069093;28;20044;-63
2022/12/07 11:47:14;;;;;;;2.80;1.20;;;8.60;99.90;;;;;;5070360;28;20036;-63
2022/12/07 11:49:45;;;;;;;3.13;1.40;;;8.50;99.90;;;;;;5068164;28;20063;-63
2022/12/07 11:52:21;;;;;;;5.75;1.50;;;8.60;99.90;;;;;;5088201;28;20045;-63
2022/12/07 11:54:52;;;;;;;5.13;1.50;;;8.80;99.90;;;;;;5085600;28;20060;-63
2022/12/07 11:57:25;;;;;;;3.72;1.15;;;8.90;99.90;;;;;;5069734;28;20048;-63
2022/12/07 11:59:57;;;;;;;5.97;1.70;;;8.90;99.90;;;;;;5058932;28;20052;-64
2022/12/07 12:02:29;;;;;;;6.57;1.33;;;8.90;99.90;;;;;;5056836;28;20056;-63
2022/12/07 12:05:00;;;;;;;9.05;1.48;;;9.00;99.90;;;;;;5073510;28;20119;-62
2022/12/07 12:07:29;;;;;;;8.02;1.42;;;9.10;99.90;;;;;;5055499;28;20071;-62
2022/12/07 12:10:02;;;;;;;9.45;1.90;;;9.20;99.90;;;;;;5074423;28;20396;-63
2022/12/07 12:13:04;;;;;;;8.68;2.30;;;8.90;99.90;;;;;;5073915;28;20044;-62
2022/12/07 12:15:53;;;;;;;4.22;1.55;;;8.60;99.90;;;;;;5072536;28;20052;-62
2022/12/07 12:18:33;;;;;;;4.88;1.45;;;8.40;99.90;;;;;;5072557;28;20044;-62
2022/12/07 12:21:05;;;;;;;6.82;1.70;;;8.00;99.90;;;;;;5073543;28;20049;-62
2022/12/07 12:23:41;;;;;;;6.45;1.50;;;7.80;99.90;;;;;;5074359;28;20044;-62
2022/12/07 12:26:14;;;;;;;4.55;1.27;;;7.60;99.90;;;;;;5054323;28;20503;-62
2022/12/07 12:28:50;;;;;;;5.03;1.58;;;7.30;99.90;;;;;;5072946;28;20102;-62
2022/12/07 12:31:32;;;;;;;8.55;1.83;;;7.10;99.90;;;;;;5072886;28;20102;-62
2022/12/07 12:34:01;;;;;;;8.55;1.40;;;7.00;99.90;;;;;;5060618;28;20076;-62
2022/12/07 12:36:45;;;;;;;6.70;1.88;;;7.00;99.90;;;;;;5073786;28;20381;-62
2022/12/07 12:39:16;;;;;;;5.00;1.40;;;7.00;99.90;;;;;;5054329;28;20044;-62
2022/12/07 12:42:08;;;;;;;;;;;7.10;99.90;;;;;;5074087;28;20526;-62
2022/12/07 12:45:14;;;;;;;7.22;1.58;;;7.10;99.90;;;;;;5045885;28;20404;-62
2022/12/07 12:47:52;;;;;;;5.82;1.60;;;7.10;99.90;;;;;;5044244;28;20425;-62
2022/12/07 12:50:21;;;;;;;5.32;1.58;;;7.10;99.90;;;;;;5045948;28;20048;-62
2022/12/07 12:53:23;;;;;;;5.38;1.40;;;6.90;99.90;;;;;;5050182;28;20072;-63
2022/12/07 12:56:38;;;;;;;5.55;1.88;;;6.60;99.90;;;;;;4950626;28;20059;-62
2022/12/07 12:59:25;;;;;;;2.72;1.33;;;6.30;99.90;;;;;;4911207;29;20052;-63
2022/12/07 13:01:55;;;;;;;5.45;1.30;;;6.10;99.90;;;;;;5030165;28;20049;-62
2022/12/07 13:05:00;;;;;;;5.43;1.33;;;6.00;99.90;;;;;;5048144;28;20103;-62
2022/12/07 13:07:59;;;;;;;3.55;1.38;;;5.80;99.90;;;;;;5046120;28;20484;-62
2022/12/07 13:10:46;;;;;;;3.97;1.40;;;5.80;99.90;;;;;;5045042;28;20056;-62
2022/12/07 13:13:33;;;;;;;4.35;1.25;;;5.90;99.90;;;;;;5051574;28;20509;-63
2022/12/07 13:16:39;;;;;;;3.38;1.20;;;5.90;99.90;;;;;;5051449;28;20076;-63
2022/12/07 13:19:41;;;;;;;6.55;1.55;;;5.90;99.90;;;;;;5053235;28;20507;-63
2022/12/07 13:22:44;;;;;;;2.95;1.63;;;6.00;99.90;;;;;;5044872;28;20044;-63
2022/12/07 13:25:18;;;;;;;3.47;1.38;;;6.10;99.90;;;;;;5047717;28;20566;-63
2022/12/07 13:27:52;;;;;;;5.25;1.35;;;6.00;99.90;;;;;;5050590;28;20425;-62
2022/12/07 13:30:23;;;;;;;5.03;1.50;;;5.90;99.90;;;;;;5052629;28;20451;-63